< < Back
Terminal Aerodrome Forecast


Current Version              Previous Versions:   1  2  3  4  5  6  7  8  9  

Terminal Aerodrome Forecast

782
FTUS42 KCAE 290525
TAFCAE
TAF
KCAE 290525Z 2906/3006 VRB04KT P6SM SCT040 BKN120
     FM290900 VRB03KT 6SM BR SCT025 BKN070
     FM291400 VRB04KT P6SM SCT040 BKN150
     FM291800 16007KT P6SM SCT050 BKN150=

Latest METAR

966
SAUS80 KWBC 291900 RRB
MTRCAE
METAR KCAE 291856Z 12008G15KT 10SM FEW080 SCT220 34/17 A2993 RMK AO2
SLP129 T03390172


USA.gov is the U.S. government's official web portal to all federal, state and local government web resources and services.